createdAt,value
2024-05-09T00:03:07.134Z,7.47
2024-05-09T00:06:34.255Z,7.43
2024-05-09T00:10:05.527Z,7.39
2024-05-09T00:13:34.440Z,7.34
2024-05-09T00:17:00.907Z,7.29
2024-05-09T00:20:36.476Z,7.25
2024-05-09T00:24:07.637Z,7.20
2024-05-09T00:27:35.088Z,7.15
2024-05-09T00:31:03.489Z,7.10
2024-05-09T00:34:30.519Z,7.05
2024-05-09T00:37:59.084Z,6.99
2024-05-09T00:41:25.741Z,6.94
2024-05-09T00:44:53.235Z,6.87
2024-05-09T00:48:24.583Z,6.81
2024-05-09T00:51:55.457Z,6.76
2024-05-09T00:55:25.046Z,6.71
2024-05-09T00:58:54.763Z,6.63
2024-05-09T01:02:24.972Z,6.55
2024-05-09T01:05:57.934Z,6.47
2024-05-09T01:09:26.411Z,6.40
2024-05-09T01:12:53.655Z,6.33
2024-05-09T01:16:21.076Z,6.27
2024-05-09T01:19:51.080Z,6.21
2024-05-09T01:23:22.125Z,6.16
2024-05-09T01:26:49.417Z,6.11
2024-05-09T01:30:20.984Z,6.07
2024-05-09T01:33:51.830Z,6.02
2024-05-09T01:37:19.263Z,5.96
2024-05-09T01:40:47.011Z,5.90
2024-05-09T01:44:13.677Z,5.86
2024-05-09T01:47:40.606Z,5.81
2024-05-09T01:51:10.663Z,5.76
2024-05-09T01:54:37.620Z,5.70
2024-05-09T01:58:04.378Z,5.65
2024-05-09T02:01:31.486Z,5.61
2024-05-09T02:05:17.760Z,5.55
2024-05-09T02:08:47.670Z,5.48
2024-05-09T02:12:18.010Z,5.41
2024-05-09T02:15:45.395Z,5.34
2024-05-09T02:19:11.823Z,5.28
2024-05-09T02:22:38.748Z,5.22
2024-05-09T02:26:05.733Z,5.18
2024-05-09T02:29:32.370Z,5.14
2024-05-09T02:32:59.475Z,5.11
2024-05-09T02:36:25.914Z,5.08
2024-05-09T02:39:52.714Z,5.05
2024-05-09T02:43:19.497Z,5.04
2024-05-09T02:46:46.644Z,4.99
2024-05-09T02:50:16.234Z,4.94
2024-05-09T02:53:47.468Z,4.89
2024-05-09T02:57:13.378Z,4.85
2024-05-09T03:00:42.210Z,4.81
2024-05-09T03:04:10.894Z,4.76
2024-05-09T03:07:38.236Z,4.71
2024-05-09T03:11:05.147Z,4.68
2024-05-09T03:14:34.295Z,4.65
2024-05-09T03:18:01.716Z,4.64
2024-05-09T03:21:29.328Z,4.62
2024-05-09T03:24:57.088Z,4.61
2024-05-09T03:28:24.245Z,4.60
2024-05-09T03:31:51.506Z,4.61
2024-05-09T03:35:19.618Z,4.61
2024-05-09T03:38:45.808Z,4.64
2024-05-09T03:42:11.504Z,4.66
2024-05-09T03:45:37.203Z,4.70
2024-05-09T03:49:02.953Z,4.74
2024-05-09T03:52:28.827Z,4.80
2024-05-09T03:55:54.593Z,4.86
2024-05-09T03:59:20.515Z,4.95
2024-05-09T04:02:48.776Z,5.10
2024-05-09T04:06:23.081Z,5.36
2024-05-09T04:09:48.785Z,5.93
2024-05-09T04:13:14.465Z,6.70
2024-05-09T04:16:40.190Z,7.51
2024-05-09T04:20:10.488Z,8.34
2024-05-09T04:23:36.666Z,9.06
2024-05-09T04:27:02.568Z,9.58
2024-05-09T04:30:37.388Z,10.05
2024-05-09T04:34:06.248Z,10.42
2024-05-09T04:37:32.238Z,10.75
2024-05-09T04:40:58.430Z,11.28
2024-05-09T04:44:24.270Z,11.83
2024-05-09T04:47:50.154Z,12.47
2024-05-09T04:51:16.195Z,13.14
2024-05-09T04:54:42.069Z,13.68
2024-05-09T04:58:09.358Z,14.00
2024-05-09T05:01:35.180Z,14.32
2024-05-09T05:05:01.004Z,14.67
2024-05-09T05:08:26.892Z,14.89
2024-05-09T05:11:53.650Z,15.12
2024-05-09T05:15:19.728Z,15.34
2024-05-09T05:18:45.602Z,15.48
2024-05-09T05:22:11.426Z,15.58
2024-05-09T05:25:37.129Z,15.77
2024-05-09T05:29:03.117Z,15.97
2024-05-09T05:32:31.284Z,16.33
2024-05-09T05:35:57.787Z,16.64
2024-05-09T05:39:23.565Z,17.04
2024-05-09T05:42:49.728Z,17.50
2024-05-09T05:46:15.493Z,17.57
2024-05-09T05:49:41.391Z,17.70
2024-05-09T05:53:10.084Z,17.84
2024-05-09T05:56:36.476Z,18.02
2024-05-09T06:00:03.990Z,17.82
2024-05-09T06:03:38.048Z,17.72
2024-05-09T06:07:04.411Z,17.57
2024-05-09T06:10:37.586Z,17.35
2024-05-09T06:14:06.022Z,17.38
2024-05-09T06:17:31.976Z,17.38
2024-05-09T06:20:58.071Z,17.17
2024-05-09T06:24:23.861Z,16.99
2024-05-09T06:27:49.553Z,16.93
2024-05-09T06:31:15.335Z,16.96
2024-05-09T06:34:41.199Z,16.66
2024-05-09T06:38:09.510Z,16.42
2024-05-09T06:41:35.689Z,16.55
2024-05-09T06:45:01.589Z,16.47
2024-05-09T06:48:27.691Z,16.54
2024-05-09T06:51:53.608Z,16.74
2024-05-09T06:55:19.290Z,17.05
2024-05-09T06:58:45.029Z,16.95
2024-05-09T07:02:10.903Z,16.64
2024-05-09T07:05:36.740Z,16.74
2024-05-09T07:09:02.464Z,16.98
2024-05-09T07:12:28.323Z,16.89
2024-05-09T07:15:54.220Z,16.68
2024-05-09T07:19:20.750Z,16.60
2024-05-09T07:22:46.580Z,16.39
2024-05-09T07:26:12.384Z,16.10
2024-05-09T07:29:38.951Z,15.89
2024-05-09T07:33:05.284Z,15.85
2024-05-09T07:36:31.285Z,15.74
2024-05-09T07:39:57.200Z,15.53
2024-05-09T07:43:22.898Z,15.30
2024-05-09T07:47:48.763Z,15.20
2024-05-09T07:52:23.816Z,15.04
2024-05-09T07:54:22.018Z,15.13
2024-05-09T07:57:47.903Z,15.21
2024-05-09T08:01:13.772Z,15.20
2024-05-09T08:04:39.725Z,15.04
2024-05-09T08:08:07.737Z,15.02
2024-05-09T08:11:35.032Z,15.18
2024-05-09T08:15:00.839Z,15.23
2024-05-09T08:18:27.637Z,15.24
2024-05-09T08:21:53.560Z,15.33
2024-05-09T08:25:19.414Z,15.53
2024-05-09T08:28:45.313Z,15.75
2024-05-09T08:32:13.729Z,15.68
2024-05-09T08:35:39.727Z,15.67
2024-05-09T08:39:05.537Z,15.87
2024-05-09T08:42:37.751Z,16.13
2024-05-09T08:46:06.038Z,16.29
2024-05-09T08:49:32.136Z,16.43
2024-05-09T08:52:58.105Z,16.70
2024-05-09T08:56:28.615Z,16.82
2024-05-09T08:59:56.418Z,16.79
2024-05-09T09:03:27.404Z,16.86
2024-05-09T09:06:58.275Z,17.11
2024-05-09T09:10:31.633Z,17.45
2024-05-09T09:13:58.839Z,17.66
2024-05-09T09:17:24.661Z,17.69
2024-05-09T09:20:50.890Z,17.76
2024-05-09T09:24:16.801Z,17.99
2024-05-09T09:27:44.578Z,17.77
2024-05-09T09:31:10.395Z,17.53
2024-05-09T09:34:36.423Z,17.42
2024-05-09T09:38:05.730Z,17.46
2024-05-09T09:41:32.088Z,17.62
2024-05-09T09:45:04.700Z,17.95
2024-05-09T09:48:32.510Z,18.10
2024-05-09T09:52:00.174Z,17.96
2024-05-09T09:55:26.519Z,17.98
2024-05-09T09:58:53.696Z,18.26
2024-05-09T10:02:19.850Z,18.40
2024-05-09T10:05:47.524Z,18.46
2024-05-09T10:09:16.258Z,18.55
2024-05-09T10:12:52.512Z,18.66
2024-05-09T10:16:22.600Z,18.53
2024-05-09T10:19:48.767Z,18.71
2024-05-09T10:23:28.217Z,19.02
2024-05-09T10:26:54.620Z,18.99
2024-05-09T10:30:33.455Z,18.91
2024-05-09T10:34:03.388Z,18.66
2024-05-09T10:37:30.006Z,18.42
2024-05-09T10:41:00.662Z,18.32
2024-05-09T10:44:26.433Z,18.27
2024-05-09T10:47:52.444Z,18.05
2024-05-09T10:51:19.321Z,18.01
2024-05-09T10:54:49.348Z,17.89
2024-05-09T10:58:19.959Z,17.63
2024-05-09T11:01:46.176Z,17.54
2024-05-09T11:05:13.111Z,17.78
2024-05-09T11:08:39.651Z,17.91
2024-05-09T11:12:06.506Z,17.98
2024-05-09T11:15:40.829Z,18.20
2024-05-09T11:19:12.408Z,18.24
2024-05-09T11:22:38.319Z,18.15
2024-05-09T11:26:05.541Z,18.17
2024-05-09T11:29:39.860Z,18.45
2024-05-09T11:33:06.241Z,18.34
2024-05-09T11:36:32.153Z,18.00
2024-05-09T11:39:58.123Z,17.93
2024-05-09T11:43:23.996Z,18.17
2024-05-09T11:46:49.854Z,18.53
2024-05-09T11:50:22.671Z,18.87
2024-05-09T11:53:55.296Z,19.08
2024-05-09T11:57:21.292Z,18.85
2024-05-09T12:00:47.459Z,18.65
2024-05-09T12:04:13.471Z,18.69
2024-05-09T12:07:39.514Z,18.61
2024-05-09T12:11:05.769Z,18.63
2024-05-09T12:14:31.692Z,18.80
2024-05-09T12:18:00.028Z,18.91
2024-05-09T12:21:27.710Z,18.99
2024-05-09T12:24:55.676Z,19.09
2024-05-09T12:28:22.213Z,19.26
2024-05-09T12:31:48.158Z,19.48
2024-05-09T12:35:13.979Z,19.71
2024-05-09T12:38:40.812Z,19.82
2024-05-09T12:42:07.105Z,19.72
2024-05-09T12:45:32.974Z,19.69
2024-05-09T12:48:59.203Z,19.70
2024-05-09T12:52:25.378Z,19.80
2024-05-09T12:55:56.897Z,19.94
2024-05-09T12:59:26.293Z,20.04
2024-05-09T13:02:52.123Z,20.12
2024-05-09T13:06:17.920Z,20.20
2024-05-09T13:09:43.811Z,20.22
2024-05-09T13:13:11.448Z,20.26
2024-05-09T13:16:37.547Z,20.21
2024-05-09T13:20:04.403Z,20.19
2024-05-09T13:23:31.449Z,20.17
2024-05-09T13:26:57.340Z,19.94
2024-05-09T13:30:29.777Z,19.77
2024-05-09T13:34:04.316Z,19.78
2024-05-09T13:37:30.322Z,19.83
2024-05-09T13:40:56.087Z,19.75
2024-05-09T13:44:22.348Z,19.71
2024-05-09T13:47:48.423Z,19.52
2024-05-09T13:51:14.470Z,19.44
2024-05-09T13:54:40.292Z,19.57
2024-05-09T13:58:06.811Z,19.79
2024-05-09T14:01:32.880Z,20.00
2024-05-09T14:04:58.951Z,20.16
2024-05-09T14:08:24.972Z,20.34
2024-05-09T14:11:50.804Z,20.50
2024-05-09T14:15:16.667Z,20.64
2024-05-09T14:18:42.564Z,20.77
2024-05-09T14:22:09.039Z,20.90
2024-05-09T14:25:38.692Z,21.01
2024-05-09T14:29:07.393Z,21.09
2024-05-09T14:32:33.330Z,21.16
2024-05-09T14:35:59.605Z,21.23
2024-05-09T14:39:25.395Z,21.12
2024-05-09T14:42:51.291Z,20.85
2024-05-09T14:46:17.189Z,20.78
2024-05-09T14:49:43.175Z,20.73
2024-05-09T14:53:10.285Z,20.56
2024-05-09T14:56:36.364Z,20.11
2024-05-09T15:00:02.803Z,19.82
2024-05-09T15:03:29.840Z,19.88
2024-05-09T15:06:56.505Z,19.84
2024-05-09T15:10:31.099Z,19.79
2024-05-09T15:14:00.620Z,19.94
2024-05-09T15:17:26.527Z,20.06
2024-05-09T15:20:52.490Z,20.14
2024-05-09T15:24:18.441Z,20.20
2024-05-09T15:27:45.276Z,20.33
2024-05-09T15:31:11.085Z,20.47
2024-05-09T15:34:36.901Z,20.61
2024-05-09T15:38:05.802Z,20.73
2024-05-09T15:41:31.547Z,20.77
2024-05-09T15:44:57.422Z,20.83
2024-05-09T15:48:23.518Z,20.85
2024-05-09T15:51:49.367Z,20.88
2024-05-09T15:55:15.548Z,20.93
2024-05-09T15:58:41.419Z,20.95
2024-05-09T16:02:07.687Z,20.97
2024-05-09T16:05:33.873Z,20.99
2024-05-09T16:09:00.310Z,21.00
2024-05-09T16:12:26.138Z,20.97
2024-05-09T16:15:52.069Z,20.95
2024-05-09T16:19:18.134Z,20.96
2024-05-09T16:22:43.826Z,20.91
2024-05-09T16:26:09.602Z,20.81
2024-05-09T16:29:35.305Z,20.73
2024-05-09T16:33:01.112Z,20.71
2024-05-09T16:36:27.188Z,20.66
2024-05-09T16:39:52.904Z,20.57
2024-05-09T16:43:19.048Z,20.49
2024-05-09T16:46:45.035Z,20.47
2024-05-09T16:50:15.797Z,20.42
2024-05-09T16:53:44.920Z,20.37
2024-05-09T16:57:10.713Z,20.32
2024-05-09T17:00:41.462Z,20.23
2024-05-09T17:04:10.148Z,20.15
2024-05-09T17:07:36.173Z,20.09
2024-05-09T17:11:02.236Z,20.03
2024-05-09T17:14:28.127Z,19.97
2024-05-09T17:17:53.967Z,19.90
2024-05-09T17:21:20.003Z,19.83
2024-05-09T17:24:45.707Z,19.74
2024-05-09T17:28:12.412Z,19.63
2024-05-09T17:31:38.557Z,19.54
2024-05-09T17:35:04.752Z,19.41
2024-05-09T17:38:30.647Z,19.24
2024-05-09T17:41:56.345Z,19.08
2024-05-09T17:45:22.833Z,18.92
2024-05-09T17:48:48.596Z,18.75
2024-05-09T17:52:14.814Z,18.60
2024-05-09T17:55:41.365Z,18.41
2024-05-09T17:59:09.921Z,18.17
2024-05-09T18:02:35.991Z,17.93
2024-05-09T18:06:02.077Z,17.74
2024-05-09T18:09:28.008Z,17.56
2024-05-09T18:12:53.777Z,17.37
2024-05-09T18:16:20.027Z,17.20
2024-05-09T18:19:45.894Z,17.03
2024-05-09T18:23:12.812Z,16.84
2024-05-09T18:26:39.074Z,16.66
2024-05-09T18:30:09.372Z,16.49
2024-05-09T18:33:35.663Z,16.30
2024-05-09T18:37:04.324Z,16.13
2024-05-09T18:40:34.621Z,15.97
2024-05-09T18:44:02.774Z,15.80
2024-05-09T18:47:28.641Z,15.61
2024-05-09T18:50:54.551Z,15.43
2024-05-09T18:54:20.800Z,15.29
2024-05-09T18:57:46.690Z,15.13
2024-05-09T19:01:13.123Z,15.01
2024-05-09T19:04:39.236Z,14.89
2024-05-09T19:08:05.894Z,14.74
2024-05-09T19:11:31.708Z,14.58
2024-05-09T19:14:57.665Z,14.42
2024-05-09T19:18:23.449Z,14.28
2024-05-09T19:21:49.395Z,14.14
2024-05-09T19:25:15.184Z,14.01
2024-05-09T19:28:41.015Z,13.91
2024-05-09T19:32:07.868Z,13.81
2024-05-09T19:35:33.708Z,13.71
2024-05-09T19:39:00.094Z,13.62
2024-05-09T19:42:27.333Z,13.55
2024-05-09T19:45:53.005Z,13.46
2024-05-09T19:49:18.994Z,13.38
2024-05-09T19:52:45.132Z,13.30
2024-05-09T19:56:10.887Z,13.22
2024-05-09T19:59:36.718Z,13.12
2024-05-09T20:03:02.685Z,13.05
2024-05-09T20:06:30.212Z,12.96
2024-05-09T20:09:55.977Z,12.89
2024-05-09T20:13:21.944Z,12.80
2024-05-09T20:16:48.679Z,12.73
2024-05-09T20:20:24.567Z,12.66
2024-05-09T20:23:59.084Z,12.61
2024-05-09T20:27:24.768Z,12.57
2024-05-09T20:30:50.546Z,12.54
2024-05-09T20:34:16.327Z,12.50
2024-05-09T20:37:42.155Z,12.45
2024-05-09T20:41:08.215Z,12.40
2024-05-09T20:44:34.495Z,12.35
2024-05-09T20:48:01.059Z,12.31
2024-05-09T20:51:29.902Z,12.27
2024-05-09T20:54:56.342Z,12.23
2024-05-09T20:58:22.757Z,12.19
2024-05-09T21:01:50.040Z,12.14
2024-05-09T21:05:18.833Z,12.08
2024-05-09T21:08:44.937Z,11.99
2024-05-09T21:12:10.879Z,11.84
2024-05-09T21:15:36.845Z,11.71
2024-05-09T21:19:02.938Z,11.62
2024-05-09T21:22:28.823Z,11.53
2024-05-09T21:25:54.620Z,11.46
2024-05-09T21:29:20.698Z,11.37
2024-05-09T21:32:46.656Z,11.30
2024-05-09T21:36:12.615Z,11.23
2024-05-09T21:39:38.567Z,11.14
2024-05-09T21:43:05.041Z,11.07
2024-05-09T21:46:30.997Z,11.01
2024-05-09T21:49:57.125Z,10.95
2024-05-09T21:53:22.952Z,10.89
2024-05-09T21:56:48.627Z,10.84
2024-05-09T22:00:28.096Z,10.79
2024-05-09T22:04:01.201Z,10.73
2024-05-09T22:07:27.165Z,10.66
2024-05-09T22:10:53.011Z,10.60
2024-05-09T22:14:19.806Z,10.55
2024-05-09T22:17:45.981Z,10.49
2024-05-09T22:21:11.869Z,10.45
2024-05-09T22:24:37.843Z,10.41
2024-05-09T22:28:04.541Z,10.36
2024-05-09T22:31:30.627Z,10.33
2024-05-09T22:34:56.721Z,10.29
2024-05-09T22:38:25.935Z,10.23
2024-05-09T22:41:51.926Z,10.17
2024-05-09T22:45:17.824Z,10.11
2024-05-09T22:48:43.768Z,10.05
2024-05-09T22:52:09.956Z,10.00
2024-05-09T22:55:35.841Z,9.94
2024-05-09T22:59:02.084Z,9.90
2024-05-09T23:02:28.086Z,9.85
2024-05-09T23:05:53.851Z,9.81
2024-05-09T23:09:19.566Z,9.77
2024-05-09T23:12:45.600Z,9.73
2024-05-09T23:16:11.734Z,9.69
2024-05-09T23:19:37.647Z,9.66
2024-05-09T23:23:03.674Z,9.64
2024-05-09T23:26:29.528Z,9.60
2024-05-09T23:29:55.196Z,9.57
2024-05-09T23:33:21.187Z,9.52
2024-05-09T23:36:47.023Z,9.45
2024-05-09T23:40:18.497Z,9.40
2024-05-09T23:43:45.080Z,9.34
2024-05-09T23:47:11.141Z,9.26
2024-05-09T23:50:38.912Z,9.17
2024-05-09T23:54:08.274Z,9.12
2024-05-09T23:57:34.039Z,9.12
